Time;durP1;ratioP1;P1;durP2;ratioP2;P2;SDS_P1;SDS_P2;PMS_P1;PMS_P2;Temp;Humidity;BMP_temperature;BMP_pressure;BME280_temperature;BME280_humidity;BME280_pressure;Samples;Min_cycle;Max_cycle;Signal;HPM_P1;HPM_P2
2022/08/09 00:01:26;;;;;;;6.93;4.40;;;;;;;;;;5124276;28;20430;-67
2022/08/09 00:03:53;;;;;;;5.05;3.75;;;;;;;;;;5136881;27;20100;-69
2022/08/09 00:06:19;;;;;;;5.05;3.97;;;;;;;;;;5127561;27;20046;-67
2022/08/09 00:08:47;;;;;;;7.78;4.40;;;;;;;;;;5129174;27;20070;-68
2022/08/09 00:11:14;;;;;;;4.57;3.78;;;;;;;;;;5115331;28;20404;-67
2022/08/09 00:13:40;;;;;;;6.35;4.10;;;;;;;;;;5141492;27;20129;-67
2022/08/09 00:16:07;;;;;;;5.88;3.72;;;;;;;;;;5120114;27;20042;-68
2022/08/09 00:18:34;;;;;;;4.72;3.95;;;;;;;;;;5134626;27;20489;-68
2022/08/09 00:21:03;;;;;;;4.57;3.83;;;;;;;;;;5147456;27;20174;-67
2022/08/09 00:23:29;;;;;;;5.93;4.05;;;;;;;;;;5117720;27;20040;-67
2022/08/09 00:25:55;;;;;;;6.93;3.55;;;;;;;;;;5138757;27;20039;-68
2022/08/09 00:28:22;;;;;;;4.78;4.03;;;;;;;;;;5145866;27;20030;-67
2022/08/09 00:30:49;;;;;;;4.43;2.90;;;;;;;;;;5130926;27;20382;-67
2022/08/09 00:33:15;;;;;;;5.50;4.13;;;;;;;;;;5154468;27;20042;-67
2022/08/09 00:35:41;;;;;;;5.50;3.90;;;;;;;;;;5142714;27;20046;-67
2022/08/09 00:38:11;;;;;;;7.22;4.38;;;;;;;;;;5146014;27;20027;-67
2022/08/09 00:40:40;;;;;;;6.00;3.78;;;;;;;;;;5136867;27;20103;-67
2022/08/09 00:43:06;;;;;;;5.32;4.07;;;;;;;;;;5146438;27;20408;-67
2022/08/09 00:45:33;;;;;;;7.53;3.72;;;;;;;;;;5152729;27;20031;-68
2022/08/09 00:47:59;;;;;;;5.32;4.18;;;;;;;;;;5134646;27;20039;-67
2022/08/09 00:50:26;;;;;;;6.38;4.85;;;;;;;;;;5116725;27;20066;-67
2022/08/09 00:52:52;;;;;;;4.63;3.72;;;;;;;;;;5144747;27;20073;-67
2022/08/09 00:55:19;;;;;;;3.95;3.00;;;;;;;;;;5124366;27;20031;-66
2022/08/09 00:57:45;;;;;;;5.22;3.40;;;;;;;;;;5148553;27;20042;-66
2022/08/09 01:00:12;;;;;;;5.75;3.60;;;;;;;;;;5148939;27;20527;-66
2022/08/09 01:02:39;;;;;;;7.43;3.83;;;;;;;;;;5130727;27;20388;-66
2022/08/09 01:05:17;;;;;;;5.80;3.92;;;;;;;;;;5134670;27;20119;-67
2022/08/09 01:07:51;;;;;;;6.40;3.90;;;;;;;;;;5133273;27;20031;-67
2022/08/09 01:10:30;;;;;;;8.50;4.38;;;;;;;;;;5125690;27;20047;-67
2022/08/09 01:13:07;;;;;;;6.57;3.83;;;;;;;;;;5122461;27;20045;-66
2022/08/09 01:15:40;;;;;;;5.35;3.47;;;;;;;;;;5134313;27;20051;-66
2022/08/09 01:18:12;;;;;;;6.88;4.50;;;;;;;;;;5145422;27;20547;-67
2022/08/09 01:21:03;;;;;;;6.05;4.20;;;;;;;;;;5119273;27;20500;-67
2022/08/09 01:24:08;;;;;;;6.25;3.47;;;;;;;;;;5111572;27;20050;-67
2022/08/09 01:26:38;;;;;;;5.05;3.45;;;;;;;;;;5025948;28;20515;-66
2022/08/09 01:29:05;;;;;;;5.43;4.07;;;;;;;;;;5039817;28;20296;-66
2022/08/09 01:31:34;;;;;;;5.50;3.83;;;;;;;;;;5093473;27;20046;-66
2022/08/09 01:34:02;;;;;;;4.80;3.70;;;;;;;;;;5116972;27;20050;-66
2022/08/09 01:36:29;;;;;;;7.40;4.20;;;;;;;;;;5128620;27;20042;-67
2022/08/09 01:38:56;;;;;;;6.38;4.43;;;;;;;;;;5153310;27;20084;-67
2022/08/09 01:41:27;;;;;;;6.45;3.83;;;;;;;;;;5139412;27;20042;-67
2022/08/09 01:43:54;;;;;;;5.43;3.88;;;;;;;;;;5135882;27;20043;-66
2022/08/09 01:46:29;;;;;;;7.22;4.40;;;;;;;;;;5143498;27;20297;-67
2022/08/09 01:48:59;;;;;;;7.45;4.18;;;;;;;;;;5147972;27;20037;-67
2022/08/09 01:51:26;;;;;;;6.35;3.70;;;;;;;;;;5148136;27;20039;-66
2022/08/09 01:53:53;;;;;;;5.03;3.90;;;;;;;;;;5146061;27;20039;-66
2022/08/09 01:56:20;;;;;;;7.57;4.15;;;;;;;;;;5124497;27;20045;-67
2022/08/09 01:58:48;;;;;;;6.40;3.75;;;;;;;;;;5144360;27;20054;-67
2022/08/09 02:01:14;;;;;;;6.55;4.30;;;;;;;;;;5121409;27;20078;-67
2022/08/09 02:03:41;;;;;;;7.90;5.53;;;;;;;;;;5124924;27;20134;-67
2022/08/09 02:06:08;;;;;;;6.28;4.32;;;;;;;;;;5141809;27;20031;-66
2022/08/09 02:08:39;;;;;;;5.93;4.22;;;;;;;;;;5110591;27;20480;-67
2022/08/09 02:11:07;;;;;;;6.20;4.22;;;;;;;;;;5125812;27;20503;-68
2022/08/09 02:13:35;;;;;;;7.07;3.88;;;;;;;;;;5136473;27;20515;-67
2022/08/09 02:16:02;;;;;;;6.70;4.47;;;;;;;;;;5120405;27;20485;-67
2022/08/09 02:18:30;;;;;;;6.38;4.47;;;;;;;;;;5127442;27;20567;-67
2022/08/09 02:20:58;;;;;;;6.15;4.30;;;;;;;;;;5137119;27;20079;-68
2022/08/09 02:23:27;;;;;;;7.88;4.30;;;;;;;;;;5126790;27;20099;-68
2022/08/09 02:25:54;;;;;;;7.28;4.57;;;;;;;;;;5142251;27;20027;-68
2022/08/09 02:28:22;;;;;;;7.55;3.60;;;;;;;;;;5122615;27;20035;-67
2022/08/09 02:31:00;;;;;;;6.80;4.40;;;;;;;;;;5141527;27;20030;-68
2022/08/09 02:33:30;;;;;;;8.48;4.50;;;;;;;;;;5135997;27;20042;-68
2022/08/09 02:35:58;;;;;;;7.05;3.63;;;;;;;;;;5143327;27;20503;-67
2022/08/09 02:38:27;;;;;;;7.97;4.00;;;;;;;;;;5112222;27;20092;-67
2022/08/09 02:40:55;;;;;;;8.77;4.75;;;;;;;;;;5126349;27;20050;-67
2022/08/09 02:43:23;;;;;;;7.03;4.30;;;;;;;;;;5129766;27;20039;-68
2022/08/09 02:45:51;;;;;;;8.98;4.20;;;;;;;;;;5134898;27;20041;-67
2022/08/09 02:48:18;;;;;;;8.15;4.03;;;;;;;;;;5139332;27;20031;-67
2022/08/09 02:50:49;;;;;;;8.15;4.18;;;;;;;;;;5122268;27;20047;-68
2022/08/09 02:53:25;;;;;;;5.35;3.88;;;;;;;;;;5138385;27;20216;-68
2022/08/09 02:55:52;;;;;;;5.40;3.88;;;;;;;;;;5143905;27;20541;-68
2022/08/09 02:58:19;;;;;;;5.85;4.00;;;;;;;;;;5151313;27;20099;-68
2022/08/09 03:00:46;;;;;;;8.20;4.20;;;;;;;;;;5148261;27;20435;-68
2022/08/09 03:03:13;;;;;;;7.10;4.18;;;;;;;;;;5121490;27;20070;-68
2022/08/09 03:05:39;;;;;;;6.28;3.83;;;;;;;;;;5140823;27;20027;-68
2022/08/09 03:08:06;;;;;;;6.35;3.92;;;;;;;;;;5115898;27;20576;-68
2022/08/09 03:10:35;;;;;;;6.22;4.28;;;;;;;;;;5150848;27;20230;-68
2022/08/09 03:13:01;;;;;;;4.90;3.70;;;;;;;;;;5131582;27;20038;-68
2022/08/09 03:15:28;;;;;;;6.72;4.57;;;;;;;;;;5135570;27;20069;-68
2022/08/09 03:17:55;;;;;;;8.27;3.85;;;;;;;;;;5118501;27;20038;-68
2022/08/09 03:20:22;;;;;;;5.35;3.30;;;;;;;;;;5135453;27;20046;-68
2022/08/09 03:22:48;;;;;;;5.47;3.00;;;;;;;;;;5150994;27;20035;-69
2022/08/09 03:25:15;;;;;;;6.53;3.80;;;;;;;;;;5132713;27;20494;-68
2022/08/09 03:27:45;;;;;;;5.95;3.70;;;;;;;;;;5119292;27;20046;-68
2022/08/09 03:30:11;;;;;;;4.18;3.33;;;;;;;;;;5140044;27;20135;-68
2022/08/09 03:32:38;;;;;;;5.88;3.40;;;;;;;;;;5119906;27;20034;-68
2022/08/09 03:35:05;;;;;;;6.82;3.78;;;;;;;;;;5146161;27;20474;-68
2022/08/09 03:37:31;;;;;;;6.68;3.38;;;;;;;;;;5129432;27;20031;-69
2022/08/09 03:39:57;;;;;;;4.75;3.00;;;;;;;;;;5116691;27;20070;-68
2022/08/09 03:42:23;;;;;;;4.90;3.30;;;;;;;;;;5139129;27;20039;-68
2022/08/09 03:44:49;;;;;;;4.47;2.92;;;;;;;;;;5118111;28;20027;-68
2022/08/09 03:47:15;;;;;;;6.03;3.80;;;;;;;;;;5145763;27;20079;-68
2022/08/09 03:49:42;;;;;;;6.55;2.88;;;;;;;;;;5130391;27;20035;-67
2022/08/09 03:52:08;;;;;;;6.13;3.10;;;;;;;;;;5144510;27;20031;-68
2022/08/09 03:54:36;;;;;;;4.25;2.92;;;;;;;;;;5147979;27;20035;-68
2022/08/09 03:57:05;;;;;;;5.32;3.25;;;;;;;;;;5117476;27;20031;-68
2022/08/09 03:59:32;;;;;;;5.18;3.08;;;;;;;;;;5128419;27;20067;-68
2022/08/09 04:01:59;;;;;;;4.43;2.97;;;;;;;;;;5124221;27;20391;-68
2022/08/09 04:04:25;;;;;;;4.75;2.83;;;;;;;;;;5143601;27;20046;-68
2022/08/09 04:06:51;;;;;;;5.47;3.33;;;;;;;;;;5119049;27;20048;-68
2022/08/09 04:09:18;;;;;;;4.13;2.65;;;;;;;;;;5145581;27;20078;-67
2022/08/09 04:11:50;;;;;;;4.43;2.90;;;;;;;;;;5141958;27;20034;-68
2022/08/09 04:14:20;;;;;;;7.82;3.50;;;;;;;;;;5153230;27;20504;-68
2022/08/09 04:16:46;;;;;;;4.35;2.72;;;;;;;;;;5141450;27;20121;-67
2022/08/09 04:19:12;;;;;;;3.95;2.97;;;;;;;;;;5134847;27;20404;-68
2022/08/09 04:21:39;;;;;;;5.25;3.05;;;;;;;;;;5135093;27;20486;-67
2022/08/09 04:24:05;;;;;;;6.80;3.80;;;;;;;;;;5127011;27;20039;-67
2022/08/09 04:26:32;;;;;;;6.10;3.10;;;;;;;;;;5119648;27;20039;-68
2022/08/09 04:28:58;;;;;;;7.70;3.78;;;;;;;;;;5152180;27;20086;-68
2022/08/09 04:31:25;;;;;;;6.20;4.05;;;;;;;;;;5129906;27;20488;-68
2022/08/09 04:33:51;;;;;;;6.05;4.25;;;;;;;;;;5103139;27;20564;-67
2022/08/09 04:36:17;;;;;;;6.20;3.50;;;;;;;;;;5138743;27;20049;-68
2022/08/09 04:38:45;;;;;;;6.97;3.53;;;;;;;;;;5138675;27;20038;-67
2022/08/09 04:41:11;;;;;;;5.97;4.30;;;;;;;;;;5133311;27;20043;-68
2022/08/09 04:43:37;;;;;;;5.53;3.45;;;;;;;;;;5155160;27;20380;-68
2022/08/09 04:46:03;;;;;;;8.07;4.55;;;;;;;;;;5125235;27;20125;-68
2022/08/09 04:48:30;;;;;;;8.20;4.10;;;;;;;;;;5147168;27;20400;-68
2022/08/09 04:50:56;;;;;;;6.13;3.83;;;;;;;;;;5124551;27;20043;-68
2022/08/09 04:53:22;;;;;;;5.45;3.60;;;;;;;;;;5121742;27;20035;-68
2022/08/09 04:55:49;;;;;;;4.18;2.80;;;;;;;;;;5130708;27;20046;-68
2022/08/09 04:58:15;;;;;;;5.03;3.55;;;;;;;;;;5139671;27;20124;-68
2022/08/09 05:00:41;;;;;;;7.88;4.32;;;;;;;;;;5137884;27;20084;-68
2022/08/09 05:03:08;;;;;;;7.85;3.28;;;;;;;;;;5140416;27;20042;-67
2022/08/09 05:05:34;;;;;;;6.88;3.78;;;;;;;;;;5151147;27;20035;-68
2022/08/09 05:08:00;;;;;;;4.55;3.22;;;;;;;;;;5121626;27;20488;-67
2022/08/09 05:10:26;;;;;;;4.63;3.55;;;;;;;;;;5149119;27;20065;-68
2022/08/09 05:12:52;;;;;;;5.40;3.33;;;;;;;;;;5143160;27;20409;-67
2022/08/09 05:15:18;;;;;;;5.53;3.25;;;;;;;;;;5123863;27;20034;-68
2022/08/09 05:17:45;;;;;;;4.25;2.65;;;;;;;;;;5129400;27;20039;-68
2022/08/09 05:20:11;;;;;;;6.95;3.08;;;;;;;;;;5121947;27;20058;-68
2022/08/09 05:22:37;;;;;;;5.53;3.50;;;;;;;;;;5150249;27;20395;-68
2022/08/09 05:25:04;;;;;;;4.45;2.60;;;;;;;;;;5150489;27;20110;-68
2022/08/09 05:27:30;;;;;;;6.88;3.40;;;;;;;;;;5148492;27;20031;-68
2022/08/09 05:29:56;;;;;;;4.53;2.95;;;;;;;;;;5144962;27;20091;-68
2022/08/09 05:32:22;;;;;;;5.18;3.33;;;;;;;;;;5140844;27;20027;-68
2022/08/09 05:34:49;;;;;;;5.90;3.25;;;;;;;;;;5144619;27;20480;-68
2022/08/09 05:37:15;;;;;;;5.60;3.63;;;;;;;;;;5139678;27;20403;-67
2022/08/09 05:39:41;;;;;;;4.93;3.00;;;;;;;;;;5136816;27;20037;-67
2022/08/09 05:42:08;;;;;;;5.43;3.03;;;;;;;;;;5122930;27;20134;-68
2022/08/09 05:44:34;;;;;;;3.78;2.55;;;;;;;;;;5121059;27;20042;-67
2022/08/09 05:47:00;;;;;;;5.47;3.42;;;;;;;;;;5129435;27;20530;-68
2022/08/09 05:49:26;;;;;;;6.40;3.40;;;;;;;;;;5128538;27;20038;-68
2022/08/09 05:51:52;;;;;;;5.00;3.60;;;;;;;;;;5123489;27;20046;-68
2022/08/09 05:54:19;;;;;;;6.80;3.22;;;;;;;;;;5121838;27;20043;-68
2022/08/09 05:56:45;;;;;;;5.50;3.47;;;;;;;;;;5115285;27;20119;-67
2022/08/09 05:59:11;;;;;;;6.13;3.25;;;;;;;;;;5124892;27;20105;-68
2022/08/09 06:01:37;;;;;;;5.30;3.38;;;;;;;;;;5116410;27;20513;-68
2022/08/09 06:04:04;;;;;;;5.40;3.10;;;;;;;;;;5122601;27;20487;-68
2022/08/09 06:06:30;;;;;;;6.97;3.75;;;;;;;;;;5111816;27;20036;-68
2022/08/09 06:08:57;;;;;;;7.97;4.07;;;;;;;;;;5114052;27;20039;-68
2022/08/09 06:11:23;;;;;;;6.97;3.97;;;;;;;;;;5124960;27;20046;-68
2022/08/09 06:13:49;;;;;;;6.80;3.88;;;;;;;;;;5128380;27;20035;-68
2022/08/09 06:16:16;;;;;;;6.38;4.13;;;;;;;;;;5130282;27;20613;-68
2022/08/09 06:18:42;;;;;;;7.13;3.40;;;;;;;;;;5111579;27;20492;-68
2022/08/09 06:21:08;;;;;;;5.53;3.72;;;;;;;;;;5111401;27;20035;-69
2022/08/09 06:23:35;;;;;;;9.52;4.10;;;;;;;;;;5113371;27;20500;-69
2022/08/09 06:26:01;;;;;;;10.43;4.45;;;;;;;;;;5117996;27;20028;-68
2022/08/09 06:28:27;;;;;;;7.60;4.18;;;;;;;;;;5124438;27;20423;-68
2022/08/09 06:30:53;;;;;;;6.50;4.63;;;;;;;;;;5129193;27;20373;-68
2022/08/09 06:33:19;;;;;;;6.38;3.90;;;;;;;;;;5123108;27;20036;-69
2022/08/09 06:35:45;;;;;;;5.93;4.38;;;;;;;;;;5113608;27;20045;-68
2022/08/09 06:38:11;;;;;;;6.45;4.15;;;;;;;;;;5124732;27;20050;-68
2022/08/09 06:40:38;;;;;;;7.45;4.00;;;;;;;;;;5118898;27;20078;-68
2022/08/09 06:43:04;;;;;;;6.38;4.00;;;;;;;;;;5131780;27;20066;-68
2022/08/09 06:45:30;;;;;;;8.52;4.28;;;;;;;;;;5147835;27;20111;-68
2022/08/09 06:47:56;;;;;;;7.88;4.53;;;;;;;;;;5140930;27;20034;-69
2022/08/09 06:50:23;;;;;;;6.45;3.42;;;;;;;;;;5114941;27;20079;-69
2022/08/09 06:52:49;;;;;;;7.50;3.38;;;;;;;;;;5144189;27;20563;-68
2022/08/09 06:55:18;;;;;;;5.05;4.05;;;;;;;;;;5123917;27;20046;-68
2022/08/09 06:57:44;;;;;;;6.85;3.63;;;;;;;;;;5127010;27;20484;-68
2022/08/09 07:00:11;;;;;;;6.43;3.50;;;;;;;;;;5116041;27;20064;-68
2022/08/09 07:02:38;;;;;;;4.93;3.63;;;;;;;;;;5106629;27;20118;-68
2022/08/09 07:05:05;;;;;;;7.65;3.67;;;;;;;;;;5139096;27;20473;-68
2022/08/09 07:07:31;;;;;;;6.43;3.22;;;;;;;;;;5137661;27;20091;-68
2022/08/09 07:09:57;;;;;;;7.35;3.05;;;;;;;;;;5129319;27;20043;-68
2022/08/09 07:12:24;;;;;;;6.18;3.35;;;;;;;;;;5134929;27;20039;-67
2022/08/09 07:14:50;;;;;;;4.72;2.90;;;;;;;;;;5117797;27;20098;-68
2022/08/09 07:17:16;;;;;;;3.78;2.00;;;;;;;;;;5127111;27;20034;-68
2022/08/09 07:19:43;;;;;;;6.95;3.35;;;;;;;;;;5135003;27;20408;-68
2022/08/09 07:22:10;;;;;;;5.07;2.85;;;;;;;;;;5122928;27;20623;-68
2022/08/09 07:24:37;;;;;;;5.30;2.95;;;;;;;;;;5104511;27;20038;-68
2022/08/09 07:27:04;;;;;;;3.70;3.22;;;;;;;;;;5121532;27;20045;-68
2022/08/09 07:29:30;;;;;;;6.05;2.78;;;;;;;;;;5103539;27;20554;-68
2022/08/09 07:31:58;;;;;;;3.17;2.22;;;;;;;;;;5139106;27;20068;-68
2022/08/09 07:34:24;;;;;;;2.78;1.80;;;;;;;;;;5121106;27;20057;-68
2022/08/09 07:36:50;;;;;;;4.88;2.42;;;;;;;;;;5121472;27;20104;-68
2022/08/09 07:39:17;;;;;;;4.90;2.20;;;;;;;;;;5133678;27;20091;-68
2022/08/09 07:41:44;;;;;;;6.68;2.40;;;;;;;;;;5114383;27;20420;-68
2022/08/09 07:44:10;;;;;;;5.25;1.98;;;;;;;;;;5137589;27;20047;-68
2022/08/09 07:46:36;;;;;;;2.42;1.67;;;;;;;;;;5141068;27;20118;-68
2022/08/09 07:49:02;;;;;;;6.88;2.90;;;;;;;;;;5128830;27;20043;-69
2022/08/09 07:51:29;;;;;;;2.72;1.88;;;;;;;;;;5142723;27;20034;-68
2022/08/09 07:53:55;;;;;;;4.35;2.22;;;;;;;;;;5115114;28;20096;-67
2022/08/09 07:56:22;;;;;;;4.07;2.40;;;;;;;;;;5136927;27;20095;-67
2022/08/09 07:58:48;;;;;;;3.00;2.08;;;;;;;;;;5145798;27;20471;-68
2022/08/09 08:01:14;;;;;;;3.35;2.03;;;;;;;;;;5132205;27;20047;-68
2022/08/09 08:03:40;;;;;;;3.45;2.45;;;;;;;;;;5147502;27;20519;-68
2022/08/09 08:06:07;;;;;;;3.88;2.65;;;;;;;;;;5137310;27;20059;-68
2022/08/09 08:08:34;;;;;;;4.18;2.45;;;;;;;;;;5113266;28;20489;-68
2022/08/09 08:11:00;;;;;;;4.05;2.03;;;;;;;;;;5107531;27;20480;-69
2022/08/09 08:13:26;;;;;;;3.15;1.65;;;;;;;;;;5140700;27;20538;-68
2022/08/09 08:15:52;;;;;;;2.65;2.00;;;;;;;;;;5150348;27;20175;-67
2022/08/09 08:18:19;;;;;;;2.97;1.75;;;;;;;;;;5121201;27;20038;-68
2022/08/09 08:20:45;;;;;;;3.38;1.95;;;;;;;;;;5124779;27;20399;-68
2022/08/09 08:23:12;;;;;;;2.40;1.65;;;;;;;;;;5114927;28;20043;-68
2022/08/09 08:25:38;;;;;;;9.38;2.60;;;;;;;;;;5121895;27;20491;-68
2022/08/09 08:28:05;;;;;;;6.18;2.50;;;;;;;;;;5117437;28;20039;-68
2022/08/09 08:30:31;;;;;;;5.40;2.70;;;;;;;;;;5144902;27;20172;-68
2022/08/09 08:32:57;;;;;;;5.55;2.72;;;;;;;;;;5130298;27;20062;-68
2022/08/09 08:35:23;;;;;;;4.18;2.38;;;;;;;;;;5142609;27;20039;-69
2022/08/09 08:37:50;;;;;;;3.20;1.63;;;;;;;;;;5126599;27;20530;-68
2022/08/09 08:40:16;;;;;;;5.15;2.42;;;;;;;;;;5117738;27;20537;-68
2022/08/09 08:42:43;;;;;;;3.53;2.53;;;;;;;;;;5116156;27;20051;-68
2022/08/09 08:45:10;;;;;;;3.78;2.35;;;;;;;;;;5109259;27;20038;-69
2022/08/09 08:47:36;;;;;;;3.17;2.42;;;;;;;;;;5125454;27;20519;-68
2022/08/09 08:50:03;;;;;;;5.32;2.03;;;;;;;;;;5143777;27;20492;-68
2022/08/09 08:52:29;;;;;;;6.88;2.67;;;;;;;;;;5124052;27;20050;-69
2022/08/09 08:54:56;;;;;;;4.93;2.28;;;;;;;;;;5142175;27;20273;-68
2022/08/09 08:57:23;;;;;;;2.17;1.60;;;;;;;;;;5153909;27;20045;-69
2022/08/09 08:59:50;;;;;;;3.72;1.52;;;;;;;;;;5142211;27;20028;-69
2022/08/09 09:02:34;;;;;;;3.75;1.80;;;;;;;;;;5100822;27;20264;-69
2022/08/09 09:05:00;;;;;;;3.28;1.75;;;;;;;;;;5130449;27;20427;-69
2022/08/09 09:07:29;;;;;;;4.30;2.05;;;;;;;;;;5134702;27;20065;-69
2022/08/09 09:09:55;;;;;;;5.82;2.13;;;;;;;;;;5134271;27;20150;-68
2022/08/09 09:12:25;;;;;;;3.95;2.28;;;;;;;;;;5136805;27;20035;-69
2022/08/09 09:14:51;;;;;;;2.60;1.65;;;;;;;;;;5120284;27;20043;-70
2022/08/09 09:17:18;;;;;;;5.75;2.00;;;;;;;;;;5120241;27;20381;-69
2022/08/09 09:19:46;;;;;;;3.00;1.60;;;;;;;;;;5112958;27;20238;-69
2022/08/09 09:22:14;;;;;;;2.22;1.52;;;;;;;;;;5143382;27;20130;-69
2022/08/09 09:24:47;;;;;;;3.72;1.42;;;;;;;;;;5132317;27;20039;-68
2022/08/09 09:27:19;;;;;;;5.18;2.55;;;;;;;;;;5118002;27;20047;-69
2022/08/09 09:29:46;;;;;;;3.88;1.65;;;;;;;;;;5127713;27;20427;-69
2022/08/09 09:32:12;;;;;;;4.57;1.55;;;;;;;;;;5136713;27;20043;-69
2022/08/09 09:34:41;;;;;;;4.70;1.30;;;;;;;;;;5122979;27;20374;-69
2022/08/09 09:37:07;;;;;;;3.47;1.58;;;;;;;;;;5128358;27;20034;-69
2022/08/09 09:39:33;;;;;;;4.72;1.50;;;;;;;;;;5128952;27;20049;-69
2022/08/09 09:41:59;;;;;;;6.40;1.30;;;;;;;;;;5117953;27;20054;-69
2022/08/09 09:44:31;;;;;;;2.25;1.52;;;;;;;;;;5139623;27;20100;-69
2022/08/09 09:47:04;;;;;;;4.27;1.50;;;;;;;;;;5139776;27;20041;-69
2022/08/09 09:49:30;;;;;;;;;;;;;;;;;;5137667;27;20035;-70
2022/08/09 09:52:01;;;;;;;1.95;1.05;;;;;;;;;;5144121;27;20384;-69
2022/08/09 09:54:33;;;;;;;2.05;1.30;;;;;;;;;;5140382;27;20542;-70
2022/08/09 09:56:59;;;;;;;;;;;;;;;;;;5135861;27;20049;-69
2022/08/09 09:59:35;;;;;;;2.50;1.52;;;;;;;;;;5127301;27;20387;-69
2022/08/09 10:02:01;;;;;;;1.83;1.00;;;;;;;;;;5131738;27;20034;-69
2022/08/09 10:04:27;;;;;;;3.50;1.52;;;;;;;;;;5122729;27;20159;-69
2022/08/09 10:06:54;;;;;;;3.97;1.38;;;;;;;;;;5133288;27;20030;-69
2022/08/09 10:09:20;;;;;;;1.40;1.00;;;;;;;;;;5117084;27;20061;-69
2022/08/09 10:11:46;;;;;;;3.90;1.38;;;;;;;;;;5123520;27;20047;-69
2022/08/09 10:14:22;;;;;;;2.25;1.20;;;;;;;;;;5128000;27;20483;-70
2022/08/09 10:16:49;;;;;;;2.08;1.42;;;;;;;;;;5150130;27;20062;-69
2022/08/09 10:19:15;;;;;;;3.60;1.52;;;;;;;;;;5117467;27;20176;-69
2022/08/09 10:21:46;;;;;;;2.42;1.23;;;;;;;;;;5122981;27;20047;-70
2022/08/09 10:24:15;;;;;;;3.42;1.50;;;;;;;;;;5136449;27;20053;-69
2022/08/09 10:26:42;;;;;;;1.98;1.20;;;;;;;;;;5122383;27;20091;-70
2022/08/09 10:29:11;;;;;;;1.63;0.93;;;;;;;;;;5131607;27;20476;-69
2022/08/09 10:31:38;;;;;;;4.50;1.40;;;;;;;;;;5139979;27;20047;-70
2022/08/09 10:34:05;;;;;;;2.90;1.20;;;;;;;;;;5119205;27;20053;-70
2022/08/09 10:36:31;;;;;;;2.25;1.00;;;;;;;;;;5111341;27;20453;-71
2022/08/09 10:38:58;;;;;;;2.00;1.00;;;;;;;;;;5124475;27;20051;-70
2022/08/09 10:41:25;;;;;;;2.53;1.10;;;;;;;;;;5149920;27;20046;-69
2022/08/09 10:43:51;;;;;;;1.50;0.90;;;;;;;;;;5140040;27;20043;-70
2022/08/09 10:46:20;;;;;;;1.95;1.65;;;;;;;;;;5121032;27;20064;-70
2022/08/09 10:48:55;;;;;;;2.40;1.05;;;;;;;;;;5122968;27;20054;-69
2022/08/09 10:51:32;;;;;;;2.75;1.42;;;;;;;;;;5117142;27;20137;-69
2022/08/09 10:54:10;;;;;;;2.10;1.48;;;;;;;;;;5122494;27;20043;-69
2022/08/09 10:56:40;;;;;;;2.95;1.30;;;;;;;;;;5146600;27;20134;-70
2022/08/09 10:59:26;;;;;;;1.13;0.90;;;;;;;;;;5097003;27;20126;-69
2022/08/09 11:01:53;;;;;;;1.35;0.85;;;;;;;;;;5137546;27;20109;-69
2022/08/09 11:04:26;;;;;;;1.13;0.85;;;;;;;;;;5124007;27;20140;-70
2022/08/09 11:06:58;;;;;;;3.53;1.10;;;;;;;;;;5128885;27;20538;-70
2022/08/09 11:09:37;;;;;;;1.25;0.90;;;;;;;;;;5122331;27;20042;-70
2022/08/09 11:12:14;;;;;;;3.00;1.70;;;;;;;;;;5131525;27;20064;-69
2022/08/09 11:14:41;;;;;;;1.13;0.88;;;;;;;;;;5145665;27;20042;-70
2022/08/09 11:17:13;;;;;;;1.55;0.93;;;;;;;;;;5126278;27;20031;-70
2022/08/09 11:19:54;;;;;;;2.60;0.82;;;;;;;;;;5123672;27;20160;-70
2022/08/09 11:22:22;;;;;;;2.28;1.10;;;;;;;;;;5116265;27;20381;-70
2022/08/09 11:24:57;;;;;;;3.10;1.17;;;;;;;;;;5124435;27;20083;-70
2022/08/09 11:27:29;;;;;;;2.53;0.80;;;;;;;;;;5120876;27;20068;-70
2022/08/09 11:29:56;;;;;;;2.50;1.10;;;;;;;;;;5108693;27;20042;-70
2022/08/09 11:32:40;;;;;;;3.20;0.90;;;;;;;;;;5137606;27;20607;-70
2022/08/09 11:35:18;;;;;;;3.10;1.35;;;;;;;;;;5125793;27;20057;-70
2022/08/09 11:37:45;;;;;;;2.38;1.20;;;;;;;;;;5139230;27;20127;-70
2022/08/09 11:40:12;;;;;;;2.42;1.10;;;;;;;;;;5124220;27;20716;-70
2022/08/09 11:42:40;;;;;;;1.63;0.95;;;;;;;;;;5115381;27;20047;-70
2022/08/09 11:45:21;;;;;;;1.23;1.00;;;;;;;;;;5123598;27;20035;-70
2022/08/09 11:47:48;;;;;;;1.13;0.73;;;;;;;;;;5144891;27;20030;-70
2022/08/09 11:50:15;;;;;;;3.30;0.95;;;;;;;;;;5148062;27;20039;-70
2022/08/09 11:53:17;;;;;;;1.20;0.93;;;;;;;;;;5137260;27;20032;-70
2022/08/09 11:55:44;;;;;;;1.73;0.80;;;;;;;;;;5135597;27;20116;-70
2022/08/09 11:58:13;;;;;;;1.60;1.02;;;;;;;;;;5120811;27;20083;-70
2022/08/09 12:00:52;;;;;;;1.33;0.85;;;;;;;;;;5126455;27;20488;-70
2022/08/09 12:03:25;;;;;;;2.17;0.85;;;;;;;;;;5130294;27;20418;-70
2022/08/09 12:05:52;;;;;;;1.63;1.05;;;;;;;;;;5131252;27;20203;-70
2022/08/09 12:08:19;;;;;;;2.85;1.15;;;;;;;;;;5112488;28;20504;-69
2022/08/09 12:10:47;;;;;;;0.80;0.80;;;;;;;;;;5142482;27;20039;-70
2022/08/09 12:13:34;;;;;;;1.45;0.85;;;;;;;;;;5135786;27;20130;-70
2022/08/09 12:16:04;;;;;;;2.55;0.80;;;;;;;;;;5131464;27;20078;-71
2022/08/09 12:18:32;;;;;;;2.05;1.00;;;;;;;;;;5123306;27;20046;-71
2022/08/09 12:20:59;;;;;;;1.73;0.80;;;20.90;99.60;;;;;;5117902;27;20403;-71
2022/08/09 12:23:25;;;;;;;2.55;1.00;;;;;;;;;;5145844;27;20027;-71
2022/08/09 12:25:52;;;;;;;1.08;0.70;;;;;;;;;;5122716;27;20077;-71
2022/08/09 12:28:19;;;;;;;1.00;0.80;;;;;;;;;;5138378;27;20035;-70
2022/08/09 12:30:47;;;;;;;1.60;0.90;;;;;;;;;;5139678;27;20118;-71
2022/08/09 12:33:14;;;;;;;1.40;0.65;;;;;;;;;;5120303;27;20103;-71
2022/08/09 12:35:41;;;;;;;1.27;0.73;;;;;;;;;;5118846;27;20039;-71
2022/08/09 12:38:17;;;;;;;0.70;0.70;;;;;;;;;;5129778;27;20121;-71
2022/08/09 12:40:44;;;;;;;2.90;0.70;;;;;;;;;;5130499;27;20041;-71
2022/08/09 12:43:11;;;;;;;2.58;0.90;;;;;;;;;;5151942;27;20122;-71
2022/08/09 12:45:37;;;;;;;2.25;1.00;;;;;;;;;;5142934;27;20031;-71
2022/08/09 12:48:04;;;;;;;1.80;0.90;;;;;;;;;;5129298;27;20123;-71
2022/08/09 12:50:31;;;;;;;2.40;1.08;;;;;;;;;;5135431;27;20050;-71
2022/08/09 12:52:57;;;;;;;2.42;0.93;;;;;;;;;;5106779;27;20045;-71
2022/08/09 12:55:29;;;;;;;0.82;0.65;;;;;;;;;;5125138;27;20057;-71
2022/08/09 12:57:55;;;;;;;1.70;0.90;;;;;;;;;;5114810;27;20039;-71
2022/08/09 13:00:23;;;;;;;1.33;0.90;;;;;;;;;;5138640;27;20126;-71
2022/08/09 13:02:50;;;;;;;0.50;0.50;;;;;;;;;;5140207;27;20038;-71
2022/08/09 13:05:17;;;;;;;1.30;0.80;;;;;;;;;;5127888;27;20068;-71
2022/08/09 13:08:03;;;;;;;1.20;0.80;;;;;;;;;;5117668;27;20491;-71
2022/08/09 13:10:29;;;;;;;2.38;0.98;;;;;;;;;;5118130;27;20034;-71
2022/08/09 13:12:59;;;;;;;2.30;0.80;;;;;;;;;;5145152;27;20061;-71
2022/08/09 13:15:25;;;;;;;1.25;0.60;;;;;;;;;;5130680;27;20054;-71
2022/08/09 13:17:51;;;;;;;1.10;0.70;;;;;;;;;;5136283;27;20046;-71
2022/08/09 13:20:30;;;;;;;3.30;0.88;;;;;;;;;;5123398;27;20464;-71
2022/08/09 13:22:59;;;;;;;1.35;0.98;;;;;;;;;;5151499;27;20381;-71
2022/08/09 13:25:25;;;;;;;1.73;0.93;;;;;;;;;;5151410;27;20412;-71
2022/08/09 13:27:51;;;;;;;1.92;1.00;;;;;;;;;;5124183;27;20070;-71
2022/08/09 13:30:19;;;;;;;2.15;0.90;;;;;;;;;;5124875;27;20076;-71
2022/08/09 13:32:45;;;;;;;2.75;1.55;;;;;;;;;;5123373;27;20038;-71
2022/08/09 13:35:12;;;;;;;1.52;1.20;;;;;;;;;;5127919;27;20042;-71
2022/08/09 13:37:38;;;;;;;1.80;1.13;;;;;;;;;;5134347;27;20042;-72
2022/08/09 13:40:05;;;;;;;1.63;1.02;;;;;;;;;;5127577;27;20084;-72
2022/08/09 13:42:32;;;;;;;1.50;0.88;;;;;;;;;;5117318;27;20055;-72
2022/08/09 13:44:58;;;;;;;1.65;1.30;;;;;;;;;;5144547;27;20056;-72
2022/08/09 13:47:24;;;;;;;1.00;0.90;;;;;;;;;;5135357;27;20039;-72
2022/08/09 13:49:51;;;;;;;2.05;0.85;;;;;;;;;;5104787;27;20042;-72
2022/08/09 13:52:17;;;;;;;4.97;1.10;;;;;;;;;;5129987;27;20039;-72
2022/08/09 13:54:43;;;;;;;1.83;1.00;;;;;;;;;;5125980;27;20027;-72
2022/08/09 13:57:10;;;;;;;1.98;0.73;;;;;;;;;;5124353;27;20042;-72
2022/08/09 13:59:36;;;;;;;1.90;0.82;;;;;;;;;;5119949;27;20073;-72
2022/08/09 14:02:03;;;;;;;1.20;0.70;;;;;;;;;;5131658;27;20031;-72
2022/08/09 14:04:29;;;;;;;2.47;0.80;;;;;;;;;;5122619;27;20118;-72
2022/08/09 14:06:57;;;;;;;3.40;0.95;;;;;;;;;;5127041;27;20042;-72
2022/08/09 14:09:23;;;;;;;2.30;0.82;;;;;;;;;;5116990;27;20082;-72
2022/08/09 14:11:50;;;;;;;2.15;0.90;;;;;;;;;;5144072;27;20041;-71
2022/08/09 14:14:16;;;;;;;1.65;0.80;;;;;;;;;;5119232;27;20466;-72
2022/08/09 14:16:42;;;;;;;4.05;1.30;;;;;;;;;;5131135;27;20102;-72
2022/08/09 14:19:09;;;;;;;2.25;1.40;;;;;;;;;;5120402;27;20031;-72
2022/08/09 14:21:36;;;;;;;1.50;0.80;;;;;;;;;;5120150;27;20046;-72
2022/08/09 14:24:02;;;;;;;0.63;0.60;;;;;;;;;;5140916;27;20114;-72
2022/08/09 14:26:28;;;;;;;0.65;0.65;;;;;;;;;;5135414;27;20114;-72
2022/08/09 14:28:55;;;;;;;0.60;0.60;;;;;;;;;;5132130;27;20038;-72
2022/08/09 14:31:21;;;;;;;1.58;0.63;;;;;;;;;;5150737;27;20099;-72
2022/08/09 14:33:47;;;;;;;1.65;0.50;;;;;;;;;;5122407;27;20045;-72
2022/08/09 14:36:13;;;;;;;2.35;0.60;;;;;;;;;;5134027;27;20126;-72
2022/08/09 14:38:39;;;;;;;0.60;0.60;;;;;;;;;;5124211;27;20080;-72
2022/08/09 14:41:06;;;;;;;0.75;0.60;;;;;;;;;;5122607;27;20181;-72
2022/08/09 14:43:33;;;;;;;1.90;0.57;;;;;;;;;;5126091;27;20210;-72
2022/08/09 14:45:59;;;;;;;2.65;1.15;;;;;;;;;;5121011;27;20035;-72
2022/08/09 14:48:25;;;;;;;1.55;0.70;;;;;;;;;;5138142;27;20504;-72